Los Angeles, CA (90016)

1:53 AM PDT on July 27, 2016 (GMT -0700)
CBS Radio, Venice and Fairfax | | Change Station

Elev 97 ft 34.04 °N, 118.37 °W | Updated 2 minutes ago

Clear
Clear
69.9 °F
Feels Like 69.9 °F
N
0.0
Wind Variable Wind from WNW
Gusts 1.0 mph

Today
High -- | Low -- °F
--% Chance of Precip.
Yesterday
High -- | Low -- °F
Precip. -- in
Pressure 29.88 in
Visibility 10.0 miles
Clouds Clear
Dew Point 66 °F
Humidity 86%
Rainfall 0.00 in
Snow Depth Not available.
6:01 AM 7:57 PM
Last Quarter, 45% visible
METAR KSMO 270751Z AUTO 00000KT 10SM CLR 21/18 A2988 RMK AO2 SLP116 T02060178 402610194
Pressure 29.88 in
Visibility 10.0 miles
Clouds Clear
Dew Point 66 °F
Humidity 86%
Rainfall 0.00 in
Snow Depth Not available.
6:01 AM 7:57 PM
Last Quarter, 45% visible
METAR KSMO 270751Z AUTO 00000KT 10SM CLR 21/18 A2988 RMK AO2 SLP116 T02060178 402610194

10-Day Weather Forecast

Almanac

Astronomy

Jul. 27, 2016 Rise Set
Actual Time
Civil Twilight
Nautical Twilight
Astronomical Twilight
Moon
Length of Visible Light
Length of Day
Tomorrow will be .
, % of the Moon is Illuminated

Today's Extremes

State Highs State Lows

Community

WunderPhotos

Upload Photos

1,927,818 photos uploaded!

WunderBlog® & News

Nearby

Air Quality

  Air Quality AQ Index Pollutant
Not available.

Snow Depth

Station Depth Elevation

Earthquake Activity

City Distance Mag. Time & Date
Minimum magnitude displayed is 2.5.

Coastal Water Temperatures

Place Temperature

Stations

Nearby Weather Stations

Station Location Temp. Windchill Dew Point Humidity Wind Precip. Elev Updated Type
                   

Watches & Warnings

There are currently no watches in effect.